Time;durP1;ratioP1;P1;durP2;ratioP2;P2;SDS_P1;SDS_P2;PMS_P1;PMS_P2;Temp;Humidity;BMP_temperature;BMP_pressure;BME280_temperature;BME280_humidity;BME280_pressure;Samples;Min_cycle;Max_cycle;Signal;HPM_P1;HPM_P2
2023/06/30 00:00:40;;;;;;;2.40;1.17;;;13.80;99.90;;;;;;5034447;28;20205;-92
2023/06/30 00:03:15;;;;;;;2.50;0.80;;;13.90;99.90;;;;;;5033271;28;20207;-91
2023/06/30 00:05:47;;;;;;;2.50;0.70;;;14.00;99.90;;;;;;5038690;28;20196;-92
2023/06/30 00:08:21;;;;;;;3.03;0.90;;;14.10;99.90;;;;;;5039897;28;20205;-92
2023/06/30 00:10:53;;;;;;;2.65;0.98;;;14.10;99.90;;;;;;5057090;28;20191;-91
2023/06/30 00:13:25;;;;;;;2.42;0.82;;;14.10;99.90;;;;;;5057076;28;20228;-91
2023/06/30 00:16:00;;;;;;;1.67;0.60;;;14.20;99.90;;;;;;5056409;28;20196;-92
2023/06/30 00:18:35;;;;;;;1.80;0.80;;;14.20;99.90;;;;;;5057002;28;20208;-92
2023/06/30 00:21:08;;;;;;;1.15;0.63;;;14.30;99.90;;;;;;5074155;28;20219;-91
2023/06/30 00:23:39;;;;;;;0.68;0.50;;;14.40;99.90;;;;;;5073371;28;20189;-89
2023/06/30 00:26:10;;;;;;;3.65;0.50;;;14.50;99.90;;;;;;5073732;28;20252;-88
2023/06/30 00:28:41;;;;;;;0.40;0.38;;;14.60;99.90;;;;;;5060542;28;20197;-90
2023/06/30 00:31:12;;;;;;;4.82;0.50;;;14.80;99.90;;;;;;5058539;28;20199;-89
2023/06/30 00:33:46;;;;;;;1.00;0.50;;;14.90;99.90;;;;;;5055055;28;20243;-89
2023/06/30 00:36:17;;;;;;;1.63;0.40;;;15.00;99.90;;;;;;5035993;28;20205;-90
2023/06/30 00:38:49;;;;;;;1.75;0.40;;;15.10;99.90;;;;;;5035912;28;20235;-88
2023/06/30 00:41:21;;;;;;;0.47;0.40;;;15.00;99.90;;;;;;5054301;28;20283;-90
2023/06/30 00:43:52;;;;;;;1.40;0.50;;;15.10;99.90;;;;;;5039141;28;20201;-88
2023/06/30 00:46:23;;;;;;;1.48;0.73;;;15.10;99.90;;;;;;5036199;28;20204;-88
2023/06/30 00:48:56;;;;;;;3.65;0.50;;;15.20;99.90;;;;;;5036217;28;20208;-89
2023/06/30 00:51:28;;;;;;;0.50;0.25;;;15.30;99.90;;;;;;5041104;28;20236;-88
2023/06/30 00:53:59;;;;;;;0.98;0.30;;;15.40;99.90;;;;;;5045447;28;20247;-86
2023/06/30 00:56:32;;;;;;;0.93;0.50;;;15.60;99.90;;;;;;5056276;28;20208;-88
2023/06/30 00:59:04;;;;;;;4.35;0.40;;;15.70;99.90;;;;;;5056011;28;20193;-88
2023/06/30 01:01:42;;;;;;;0.52;0.40;;;15.70;99.90;;;;;;5035637;28;20194;-88
2023/06/30 01:04:22;;;;;;;1.42;0.30;;;15.80;99.90;;;;;;5035226;28;20204;-88
2023/06/30 01:07:03;;;;;;;0.20;0.20;;;16.00;99.90;;;;;;5035215;28;20287;-88
2023/06/30 01:09:39;;;;;;;0.65;0.40;;;16.00;99.90;;;;;;5034790;28;20579;-88
2023/06/30 01:12:11;;;;;;;0.20;0.20;;;16.00;99.90;;;;;;5042514;28;20221;-88
2023/06/30 01:14:44;;;;;;;0.45;0.20;;;16.10;99.90;;;;;;5034584;28;20231;-88
2023/06/30 01:17:16;;;;;;;2.17;0.30;;;16.10;99.90;;;;;;5037586;28;20609;-91
2023/06/30 01:19:53;;;;;;;2.25;0.40;;;16.30;99.90;;;;;;5055356;28;20219;-89
2023/06/30 01:22:30;;;;;;;1.35;0.10;;;16.40;99.90;;;;;;5052500;28;20196;-89
2023/06/30 01:25:09;;;;;;;0.63;0.50;;;16.50;99.90;;;;;;5055464;28;20204;-89
2023/06/30 01:27:42;;;;;;;0.93;0.40;;;16.60;99.90;;;;;;5061822;28;20193;-89
2023/06/30 01:30:14;;;;;;;0.45;0.30;;;16.70;99.90;;;;;;5071718;28;20531;-89
2023/06/30 01:32:46;;;;;;;0.40;0.38;;;16.70;99.90;;;;;;5054121;28;20204;-91
2023/06/30 01:35:21;;;;;;;0.30;0.30;;;16.70;99.90;;;;;;5038486;28;20216;-89
2023/06/30 01:37:52;;;;;;;2.47;0.40;;;16.70;99.90;;;;;;5034545;28;20564;-88
2023/06/30 01:40:24;;;;;;;0.47;0.40;;;16.90;99.10;;;;;;5034760;28;20197;-87
2023/06/30 01:43:00;;;;;;;0.25;0.20;;;16.90;99.30;;;;;;5051322;28;20660;-88
2023/06/30 01:45:34;;;;;;;1.35;0.38;;;17.00;99.20;;;;;;5039245;28;22157;-88
2023/06/30 01:48:09;;;;;;;0.20;0.20;;;17.10;98.10;;;;;;5035104;28;20197;-88
2023/06/30 01:50:43;;;;;;;0.32;0.28;;;17.00;97.30;;;;;;5045523;28;20197;-88
2023/06/30 01:53:14;;;;;;;0.45;0.22;;;17.10;97.60;;;;;;5054000;28;20239;-89
2023/06/30 01:55:52;;;;;;;2.10;0.40;;;17.10;96.90;;;;;;5051592;28;20189;-88
2023/06/30 01:58:23;;;;;;;3.20;0.80;;;17.20;97.30;;;;;;5056538;28;20192;-88
2023/06/30 02:00:54;;;;;;;0.60;0.50;;;17.30;97.00;;;;;;5055822;28;20204;-88
2023/06/30 02:03:29;;;;;;;0.32;0.20;;;17.30;96.50;;;;;;5054927;28;20214;-87
2023/06/30 02:06:05;;;;;;;1.33;0.30;;;17.40;96.90;;;;;;5054763;28;20192;-88
2023/06/30 02:08:37;;;;;;;1.95;0.50;;;17.40;95.80;;;;;;5029353;28;20667;-88
2023/06/30 02:11:10;;;;;;;0.77;0.40;;;17.40;95.50;;;;;;5034212;28;20264;-88
2023/06/30 02:13:42;;;;;;;0.90;0.47;;;17.40;95.40;;;;;;5016953;28;20228;-87
2023/06/30 02:16:14;;;;;;;1.50;0.70;;;17.30;95.40;;;;;;5038570;28;20200;-87
2023/06/30 02:18:47;;;;;;;0.25;0.25;;;17.30;95.80;;;;;;5036974;28;20200;-86
2023/06/30 02:21:22;;;;;;;1.27;0.50;;;17.50;95.50;;;;;;5052978;28;20219;-87
2023/06/30 02:23:53;;;;;;;0.47;0.30;;;17.50;95.20;;;;;;5053637;28;20192;-88
2023/06/30 02:26:25;;;;;;;4.38;1.90;;;17.70;95.10;;;;;;5054000;28;20213;-87
2023/06/30 02:28:58;;;;;;;1.33;1.05;;;17.60;94.30;;;;;;5047638;28;20657;-87
2023/06/30 02:31:29;;;;;;;4.65;1.30;;;17.40;94.30;;;;;;5047302;28;20203;-89
2023/06/30 02:34:01;;;;;;;0.77;0.60;;;17.50;94.20;;;;;;5039913;28;20288;-88
2023/06/30 02:36:34;;;;;;;1.20;0.63;;;17.40;94.40;;;;;;5055958;28;20228;-88
2023/06/30 02:39:06;;;;;;;1.10;0.45;;;17.60;94.30;;;;;;5054992;28;20200;-87
2023/06/30 02:41:37;;;;;;;0.20;0.20;;;17.60;93.70;;;;;;5047397;28;20205;-87
2023/06/30 02:44:10;;;;;;;0.90;0.70;;;17.60;93.80;;;;;;5004570;28;20676;-89
2023/06/30 02:46:41;;;;;;;1.13;0.70;;;17.70;94.00;;;;;;5044029;28;20238;-87
2023/06/30 02:49:15;;;;;;;0.75;0.40;;;17.70;93.40;;;;;;5077700;28;20214;-89
2023/06/30 02:51:52;;;;;;;1.00;0.88;;;17.70;93.40;;;;;;5082029;28;20224;-89
2023/06/30 02:54:24;;;;;;;0.95;0.52;;;17.70;93.20;;;;;;5074143;28;20266;-89
2023/06/30 02:56:55;;;;;;;2.13;0.88;;;17.80;93.80;;;;;;5075384;28;20216;-87
2023/06/30 02:59:26;;;;;;;0.70;0.40;;;17.90;93.00;;;;;;5071214;28;20218;-90
2023/06/30 03:01:58;;;;;;;1.23;0.70;;;17.90;93.10;;;;;;5057744;28;20545;-86
2023/06/30 03:04:29;;;;;;;1.58;0.70;;;17.90;93.60;;;;;;5052773;28;20193;-87
2023/06/30 03:07:03;;;;;;;1.20;0.52;;;17.90;93.10;;;;;;5053093;28;20197;-87
2023/06/30 03:09:34;;;;;;;1.00;0.60;;;18.00;93.10;;;;;;5051005;28;20644;-86
2023/06/30 03:12:07;;;;;;;1.33;0.50;;;18.00;93.30;;;;;;5052681;28;20209;-86
2023/06/30 03:14:41;;;;;;;0.70;0.60;;;18.20;93.50;;;;;;5055542;28;20216;-88
2023/06/30 03:17:12;;;;;;;1.30;0.90;;;18.10;92.30;;;;;;5034915;28;20232;-88
2023/06/30 03:19:46;;;;;;;0.60;0.50;;;18.10;92.80;;;;;;5033492;28;20205;-88
2023/06/30 03:22:21;;;;;;;0.45;0.30;;;18.20;92.50;;;;;;5048426;28;20686;-89
2023/06/30 03:24:52;;;;;;;0.90;0.30;;;18.30;92.70;;;;;;5053186;28;20570;-88
2023/06/30 03:27:24;;;;;;;1.00;0.60;;;18.30;92.20;;;;;;5052386;28;20199;-88
2023/06/30 03:29:55;;;;;;;0.80;0.40;;;18.40;92.40;;;;;;5055748;28;20189;-88
2023/06/30 03:32:26;;;;;;;1.30;0.50;;;18.30;92.40;;;;;;5066280;28;20211;-88
2023/06/30 03:34:57;;;;;;;0.40;0.40;;;18.40;92.30;;;;;;5035074;28;20243;-88
2023/06/30 03:37:32;;;;;;;1.38;0.80;;;18.40;92.50;;;;;;5015852;28;20201;-88
2023/06/30 03:40:06;;;;;;;0.93;0.70;;;18.50;91.90;;;;;;5052624;28;20196;-90
2023/06/30 03:42:38;;;;;;;0.90;0.50;;;18.60;93.00;;;;;;5063828;28;20612;-90
2023/06/30 03:45:12;;;;;;;3.25;0.65;;;18.60;92.20;;;;;;5056632;28;20232;-91
2023/06/30 03:47:46;;;;;;;0.82;0.50;;;18.50;92.00;;;;;;5070534;28;20176;-92
2023/06/30 03:50:20;;;;;;;1.02;0.85;;;18.50;92.30;;;;;;5057440;28;20204;-92
2023/06/30 03:52:54;;;;;;;2.00;1.60;;;18.60;91.50;;;;;;5034494;28;20233;-93
2023/06/30 03:55:27;;;;;;;0.90;0.80;;;18.60;91.80;;;;;;5015475;28;20722;-92
2023/06/30 03:58:02;;;;;;;1.95;1.00;;;18.60;91.80;;;;;;5034888;28;20224;-92
2023/06/30 04:00:35;;;;;;;1.30;1.02;;;18.70;91.60;;;;;;5015871;28;20212;-92
2023/06/30 04:03:06;;;;;;;1.73;0.80;;;18.70;91.00;;;;;;5026341;28;20678;-92
2023/06/30 04:05:39;;;;;;;0.30;0.30;;;18.70;91.60;;;;;;5015596;28;20205;-94
2023/06/30 04:08:13;;;;;;;0.55;0.20;;;18.80;91.60;;;;;;5033967;28;20209;-93
2023/06/30 04:10:49;;;;;;;0.30;0.30;;;18.80;90.80;;;;;;5033736;28;20204;-92
2023/06/30 04:13:21;;;;;;;1.27;1.10;;;18.90;91.10;;;;;;5032766;28;20220;-92
2023/06/30 04:15:53;;;;;;;0.98;0.93;;;18.90;90.30;;;;;;5033027;28;20221;-92
2023/06/30 04:18:26;;;;;;;2.05;1.45;;;18.90;90.30;;;;;;5033058;28;20571;-93
2023/06/30 04:21:00;;;;;;;0.85;0.50;;;18.80;90.20;;;;;;5036545;28;20203;-93
2023/06/30 04:23:35;;;;;;;0.30;0.22;;;18.80;90.60;;;;;;5033930;28;20280;-93
2023/06/30 04:26:07;;;;;;;2.67;0.55;;;18.70;90.20;;;;;;5047349;28;20197;-93
2023/06/30 04:28:39;;;;;;;2.45;0.77;;;18.70;90.50;;;;;;5052869;28;20279;-92
2023/06/30 04:31:10;;;;;;;0.35;0.28;;;18.70;90.20;;;;;;5052722;28;20218;-92
2023/06/30 04:33:42;;;;;;;1.67;0.30;;;18.70;90.40;;;;;;5035787;28;20209;-93
2023/06/30 04:36:15;;;;;;;0.40;0.40;;;18.70;90.50;;;;;;5053026;28;20224;-92
2023/06/30 04:38:48;;;;;;;2.55;0.50;;;18.80;89.90;;;;;;5052185;28;20275;-93
2023/06/30 04:41:19;;;;;;;0.28;0.28;;;18.80;89.40;;;;;;5049299;28;20205;-91
2023/06/30 04:43:52;;;;;;;0.57;0.40;;;18.70;89.30;;;;;;5042766;28;20669;-90
2023/06/30 04:46:25;;;;;;;2.80;0.60;;;18.70;89.30;;;;;;5034034;28;20228;-91
2023/06/30 04:48:56;;;;;;;1.80;0.45;;;18.70;89.80;;;;;;5042901;28;20268;-92
2023/06/30 04:51:28;;;;;;;0.93;0.50;;;18.80;89.70;;;;;;5053494;28;20205;-91
2023/06/30 04:54:02;;;;;;;0.95;0.45;;;18.70;90.10;;;;;;5040168;28;20675;-92
2023/06/30 04:56:34;;;;;;;1.02;0.47;;;18.70;90.30;;;;;;5019230;28;20196;-92
2023/06/30 04:59:06;;;;;;;0.30;0.20;;;18.70;90.60;;;;;;5036692;28;20202;-93
2023/06/30 05:01:39;;;;;;;1.02;0.50;;;18.70;90.00;;;;;;5036841;28;20200;-92
2023/06/30 05:04:11;;;;;;;0.45;0.40;;;18.60;89.80;;;;;;5036660;28;20224;-93
2023/06/30 05:06:44;;;;;;;1.40;0.95;;;18.60;90.30;;;;;;5020061;28;20194;-93
2023/06/30 05:09:21;;;;;;;6.28;1.15;;;18.70;89.40;;;;;;5037035;28;20209;-92
2023/06/30 05:11:53;;;;;;;0.70;0.55;;;18.60;89.60;;;;;;5050060;28;20196;-93
2023/06/30 05:14:26;;;;;;;2.05;0.50;;;18.60;89.90;;;;;;5037961;28;20216;-93
2023/06/30 05:16:58;;;;;;;0.63;0.45;;;18.60;89.80;;;;;;5020989;28;20186;-92
2023/06/30 05:19:29;;;;;;;2.25;0.32;;;18.60;90.10;;;;;;5041759;28;20203;-92
2023/06/30 05:22:03;;;;;;;0.95;0.45;;;18.60;89.80;;;;;;5032831;28;20193;-91
2023/06/30 05:24:38;;;;;;;3.15;0.73;;;18.60;89.60;;;;;;5056269;28;20219;-91
2023/06/30 05:27:10;;;;;;;0.85;0.47;;;18.70;90.00;;;;;;5056501;28;20675;-90
2023/06/30 05:29:44;;;;;;;0.80;0.30;;;18.70;90.00;;;;;;5047903;28;20201;-92
2023/06/30 05:32:15;;;;;;;0.80;0.40;;;18.50;89.00;;;;;;5050686;28;20209;-92
2023/06/30 05:34:48;;;;;;;0.40;0.20;;;18.40;90.00;;;;;;5057757;28;20208;-91
2023/06/30 05:37:21;;;;;;;0.50;0.35;;;18.40;89.80;;;;;;5068271;28;20197;-93
2023/06/30 05:39:59;;;;;;;0.85;0.30;;;18.40;90.10;;;;;;5057047;28;20564;-92
2023/06/30 05:42:33;;;;;;;1.40;0.40;;;18.40;90.30;;;;;;5056128;28;20209;-92
2023/06/30 05:45:05;;;;;;;3.55;0.30;;;18.40;90.40;;;;;;5021947;28;20197;-93
2023/06/30 05:47:36;;;;;;;0.32;0.32;;;18.30;90.40;;;;;;5049805;28;20558;-87
2023/06/30 05:50:08;;;;;;;1.58;0.40;;;18.40;90.60;;;;;;5052809;28;20551;-85
2023/06/30 05:52:39;;;;;;;0.47;0.47;;;18.40;90.40;;;;;;5053471;28;20235;-86
2023/06/30 05:55:14;;;;;;;0.30;0.30;;;18.40;90.80;;;;;;5045639;28;20326;-87
2023/06/30 05:57:47;;;;;;;0.98;0.30;;;18.40;90.60;;;;;;5035213;28;20208;-86
2023/06/30 06:00:19;;;;;;;0.32;0.30;;;18.30;90.90;;;;;;5036588;28;20205;-85
2023/06/30 06:02:50;;;;;;;0.40;0.30;;;18.20;91.00;;;;;;5034698;28;20664;-87
2023/06/30 06:05:21;;;;;;;0.35;0.20;;;18.20;90.90;;;;;;5037937;28;20193;-87
2023/06/30 06:07:53;;;;;;;0.60;0.35;;;18.30;91.40;;;;;;5039499;28;20213;-88
2023/06/30 06:10:26;;;;;;;0.85;0.40;;;18.20;91.30;;;;;;5053049;28;20304;-89
2023/06/30 06:12:57;;;;;;;1.13;0.38;;;18.20;91.60;;;;;;5054297;28;20200;-88
2023/06/30 06:15:28;;;;;;;0.68;0.30;;;18.10;91.30;;;;;;5041339;28;20220;-88
2023/06/30 06:17:59;;;;;;;1.60;0.30;;;18.00;91.40;;;;;;5034454;28;20205;-89
2023/06/30 06:20:30;;;;;;;1.63;0.50;;;18.10;91.70;;;;;;5046114;28;20595;-88
2023/06/30 06:23:02;;;;;;;0.80;0.40;;;18.10;91.90;;;;;;5046193;28;20205;-89
2023/06/30 06:25:38;;;;;;;2.00;0.40;;;18.10;92.30;;;;;;5038205;28;20212;-90
2023/06/30 06:28:10;;;;;;;0.40;0.30;;;18.10;92.00;;;;;;5048001;28;20200;-91
2023/06/30 06:30:43;;;;;;;0.45;0.30;;;18.20;92.10;;;;;;5037333;28;20223;-89
2023/06/30 06:33:15;;;;;;;0.22;0.22;;;18.10;92.40;;;;;;5064014;28;20208;-89
2023/06/30 06:35:47;;;;;;;0.50;0.38;;;18.00;92.30;;;;;;5049348;28;20658;-89
2023/06/30 06:38:20;;;;;;;0.75;0.40;;;17.80;92.60;;;;;;5035437;28;20204;-89
2023/06/30 06:40:56;;;;;;;1.10;1.00;;;17.60;93.00;;;;;;5036554;28;20205;-90
2023/06/30 06:43:28;;;;;;;5.25;4.75;;;17.50;93.60;;;;;;5034288;28;20204;-90
2023/06/30 06:46:00;;;;;;;11.20;7.25;;;17.40;93.90;;;;;;5037929;28;20201;-89
2023/06/30 06:48:32;;;;;;;1.20;1.10;;;17.20;94.20;;;;;;5037698;28;20204;-89
2023/06/30 06:51:05;;;;;;;2.67;1.60;;;17.10;94.70;;;;;;5036619;28;20284;-90
2023/06/30 06:53:37;;;;;;;2.00;1.73;;;17.00;94.90;;;;;;5053626;28;20669;-90
2023/06/30 06:56:11;;;;;;;1.98;0.82;;;16.90;95.60;;;;;;5052325;28;20250;-89
2023/06/30 06:58:42;;;;;;;0.80;0.40;;;16.90;95.70;;;;;;5034480;28;20251;-90
2023/06/30 07:01:17;;;;;;;0.80;0.50;;;16.90;95.90;;;;;;5035058;28;20262;-90
2023/06/30 07:03:49;;;;;;;0.85;0.50;;;16.90;96.20;;;;;;5041368;28;20180;-90
2023/06/30 07:06:22;;;;;;;0.55;0.50;;;16.80;96.70;;;;;;5056786;28;20260;-90
2023/06/30 07:08:54;;;;;;;1.48;0.60;;;16.80;96.90;;;;;;5061155;28;20192;-91
2023/06/30 07:11:27;;;;;;;0.77;0.50;;;16.80;97.10;;;;;;5054833;28;20291;-90
2023/06/30 07:13:59;;;;;;;2.15;0.93;;;16.70;97.50;;;;;;5054417;28;20284;-89
2023/06/30 07:16:31;;;;;;;1.25;1.00;;;16.60;97.70;;;;;;5053006;28;20239;-89
2023/06/30 07:19:03;;;;;;;2.90;1.48;;;16.60;98.00;;;;;;5053319;28;20251;-90
2023/06/30 07:21:34;;;;;;;2.00;1.00;;;16.60;98.20;;;;;;5053144;28;20226;-88
2023/06/30 07:24:06;;;;;;;1.05;0.80;;;16.40;98.50;;;;;;5053302;28;20231;-90
2023/06/30 07:26:40;;;;;;;1.80;1.33;;;16.30;99.00;;;;;;5044339;28;20208;-92
2023/06/30 07:29:11;;;;;;;2.13;1.00;;;16.30;99.30;;;;;;5042638;28;20678;-91
2023/06/30 07:31:42;;;;;;;1.77;0.93;;;16.30;99.60;;;;;;5052913;28;20204;-92
2023/06/30 07:34:14;;;;;;;2.67;1.05;;;16.30;99.60;;;;;;5053988;28;20235;-90
2023/06/30 07:36:46;;;;;;;2.95;1.23;;;16.20;99.80;;;;;;5053271;28;20232;-92
2023/06/30 07:39:18;;;;;;;4.57;2.35;;;16.20;99.80;;;;;;5054806;28;20663;-91
2023/06/30 07:41:55;;;;;;;1.27;0.80;;;16.20;99.90;;;;;;5054998;28;20261;-91
2023/06/30 07:44:26;;;;;;;3.70;2.10;;;16.10;99.90;;;;;;5054760;28;20207;-92
2023/06/30 07:46:58;;;;;;;0.88;0.70;;;15.90;99.90;;;;;;5067488;28;20207;-91
2023/06/30 07:52:12;;;;;;;3.58;2.22;;;15.80;99.90;;;;;;5033231;28;20237;-90
2023/06/30 07:54:45;;;;;;;0.98;0.63;;;15.80;99.90;;;;;;5041027;28;20648;-89
2023/06/30 07:57:45;;;;;;;0.77;0.77;;;15.70;99.90;;;;;;5048626;28;20224;-89
2023/06/30 08:00:45;;;;;;;2.00;0.88;;;15.70;99.90;;;;;;5066400;28;20760;-91
2023/06/30 08:06:12;;;;;;;1.33;0.95;;;15.50;99.90;;;;;;5038688;28;20205;-89
2023/06/30 08:08:46;;;;;;;1.02;0.80;;;15.50;99.90;;;;;;5032307;28;20196;-90
2023/06/30 08:11:19;;;;;;;1.05;0.90;;;15.50;99.90;;;;;;5054913;28;20203;-89
2023/06/30 08:13:49;;;;;;;1.83;1.52;;;15.30;99.90;;;;;;5039249;28;20211;-87
2023/06/30 08:16:20;;;;;;;6.00;3.10;;;15.40;99.90;;;;;;5058595;28;20220;-88
2023/06/30 08:18:54;;;;;;;1.73;1.15;;;15.40;99.90;;;;;;5042641;28;20215;-87
2023/06/30 08:21:26;;;;;;;1.50;0.90;;;15.40;99.90;;;;;;5059560;28;20214;-87
2023/06/30 08:24:19;;;;;;;6.15;3.35;;;15.30;99.90;;;;;;5062585;28;20207;-89
2023/06/30 08:26:51;;;;;;;0.73;0.70;;;15.20;99.90;;;;;;5041950;28;20239;-90
2023/06/30 08:29:24;;;;;;;3.58;1.10;;;15.20;99.90;;;;;;5056311;28;20201;-89
2023/06/30 08:31:56;;;;;;;4.28;1.77;;;15.20;99.90;;;;;;5057067;28;20201;-89
2023/06/30 08:34:31;;;;;;;1.45;0.88;;;15.20;99.90;;;;;;5055978;28;20568;-88
2023/06/30 08:37:04;;;;;;;4.65;2.10;;;15.20;99.90;;;;;;5062931;28;20259;-90
2023/06/30 08:39:35;;;;;;;3.65;1.85;;;15.20;99.90;;;;;;5055824;28;20287;-90
2023/06/30 08:42:08;;;;;;;4.13;2.53;;;15.20;99.90;;;;;;5056116;28;20200;-91
2023/06/30 08:44:43;;;;;;;2.00;1.25;;;15.10;99.90;;;;;;5056126;28;20223;-91
2023/06/30 08:47:16;;;;;;;1.45;1.10;;;15.10;99.90;;;;;;5056600;28;20673;-90
2023/06/30 08:49:53;;;;;;;4.20;1.88;;;15.10;99.90;;;;;;5076351;28;20204;-92
2023/06/30 08:52:24;;;;;;;3.80;1.35;;;15.10;99.90;;;;;;5061185;28;20226;-92
2023/06/30 08:55:01;;;;;;;4.60;2.13;;;15.10;99.90;;;;;;5055547;28;20599;-91
2023/06/30 08:57:34;;;;;;;2.42;1.80;;;15.20;99.90;;;;;;5036002;28;20209;-91
2023/06/30 09:00:04;;;;;;;5.47;1.65;;;15.10;99.90;;;;;;5036069;28;20200;-91
2023/06/30 09:02:37;;;;;;;7.40;3.67;;;15.10;99.90;;;;;;5036217;28;20212;-92
2023/06/30 09:05:12;;;;;;;2.80;1.90;;;15.10;99.90;;;;;;5074161;28;20566;-91
2023/06/30 09:07:50;;;;;;;5.10;2.65;;;15.10;99.90;;;;;;5076252;28;20203;-90
2023/06/30 09:10:24;;;;;;;18.48;6.93;;;15.10;99.90;;;;;;5077072;28;20187;-90
2023/06/30 09:12:57;;;;;;;5.07;3.20;;;15.00;99.90;;;;;;5046589;28;20304;-92
2023/06/30 09:15:29;;;;;;;2.45;1.30;;;15.00;99.90;;;;;;5035711;28;20592;-92
2023/06/30 09:18:00;;;;;;;2.72;1.55;;;15.00;99.90;;;;;;5035955;28;20203;-91
2023/06/30 09:20:34;;;;;;;2.47;1.70;;;14.90;99.90;;;;;;5042161;28;20192;-91
2023/06/30 09:23:08;;;;;;;6.95;2.65;;;14.90;99.90;;;;;;5075627;28;20729;-91
2023/06/30 09:25:43;;;;;;;12.85;6.13;;;14.90;99.90;;;;;;5066388;28;20209;-92
2023/06/30 09:28:15;;;;;;;4.03;2.17;;;14.90;99.90;;;;;;5054933;28;20202;-91
2023/06/30 09:30:50;;;;;;;2.25;1.35;;;14.80;99.90;;;;;;5036878;28;20200;-92
2023/06/30 09:33:25;;;;;;;6.50;2.38;;;14.80;99.90;;;;;;5055189;28;20196;-93
2023/06/30 09:36:00;;;;;;;10.07;4.07;;;14.70;99.90;;;;;;5055204;28;20239;-91
2023/06/30 09:38:31;;;;;;;7.65;4.28;;;14.70;99.90;;;;;;5071959;28;20295;-92
2023/06/30 09:41:08;;;;;;;17.25;4.28;;;14.70;99.90;;;;;;5076381;28;20199;-92
2023/06/30 09:43:40;;;;;;;9.20;4.38;;;14.70;99.90;;;;;;5035953;28;20593;-92
2023/06/30 09:46:13;;;;;;;6.70;3.72;;;14.60;99.90;;;;;;5036614;28;20181;-91
2023/06/30 09:48:45;;;;;;;8.85;4.95;;;14.50;99.90;;;;;;5035587;28;20201;-92
2023/06/30 09:51:24;;;;;;;6.13;3.88;;;14.50;99.90;;;;;;5035551;28;20730;-92
2023/06/30 09:53:56;;;;;;;7.72;3.58;;;14.40;99.90;;;;;;5018132;28;20193;-92
2023/06/30 09:56:27;;;;;;;6.28;3.50;;;14.50;99.90;;;;;;5072075;28;20234;-91
2023/06/30 09:59:01;;;;;;;4.57;2.30;;;14.50;99.90;;;;;;5044187;28;20193;-91
2023/06/30 10:01:34;;;;;;;4.32;2.17;;;14.50;99.90;;;;;;5058460;28;20215;-92
2023/06/30 10:04:07;;;;;;;3.33;2.10;;;14.50;99.90;;;;;;5066314;28;20202;-89
2023/06/30 10:06:41;;;;;;;2.25;1.77;;;14.50;99.90;;;;;;5058623;28;20605;-92
2023/06/30 10:09:13;;;;;;;2.45;1.70;;;14.50;99.90;;;;;;5054395;28;20200;-92
2023/06/30 10:11:47;;;;;;;3.13;1.80;;;14.50;99.90;;;;;;5064633;28;20205;-92
2023/06/30 10:14:23;;;;;;;3.25;1.98;;;14.50;99.90;;;;;;5050539;28;20192;-92
2023/06/30 10:16:55;;;;;;;2.47;1.67;;;14.40;99.90;;;;;;5043737;28;20232;-91
2023/06/30 10:19:28;;;;;;;2.38;1.55;;;14.40;99.90;;;;;;5054923;28;20204;-91
2023/06/30 10:22:05;;;;;;;1.88;1.35;;;14.50;99.90;;;;;;5055456;28;20299;-91
2023/06/30 10:24:42;;;;;;;2.30;1.38;;;14.40;99.90;;;;;;5076806;28;20198;-92
2023/06/30 10:27:18;;;;;;;1.25;0.88;;;14.30;99.90;;;;;;5076245;28;20212;-91
2023/06/30 10:29:52;;;;;;;1.30;1.20;;;14.30;99.90;;;;;;5073664;28;20200;-90
2023/06/30 10:32:27;;;;;;;2.80;1.30;;;14.30;99.90;;;;;;5066323;28;20200;-91
2023/06/30 10:34:59;;;;;;;1.27;1.17;;;14.30;99.90;;;;;;5054294;28;20549;-92
2023/06/30 10:37:34;;;;;;;3.72;2.45;;;14.30;99.90;;;;;;5055939;28;20311;-92
2023/06/30 10:40:08;;;;;;;3.40;2.22;;;14.20;99.90;;;;;;5060822;28;20202;-91
2023/06/30 10:42:45;;;;;;;4.72;1.90;;;14.00;99.90;;;;;;5078201;28;20207;-91
2023/06/30 10:45:16;;;;;;;4.50;1.60;;;14.00;99.90;;;;;;5058047;28;20254;-92
2023/06/30 10:47:54;;;;;;;2.58;1.40;;;14.10;99.90;;;;;;5043960;28;20203;-91
2023/06/30 10:50:27;;;;;;;1.63;1.30;;;14.00;99.90;;;;;;5033381;28;20209;-93
2023/06/30 10:53:02;;;;;;;1.63;1.45;;;14.00;99.90;;;;;;5035762;28;20275;-91
2023/06/30 10:55:34;;;;;;;1.90;1.55;;;14.00;99.90;;;;;;5023961;28;20664;-92
2023/06/30 10:58:09;;;;;;;2.17;1.40;;;14.00;99.90;;;;;;5035672;28;20197;-92
2023/06/30 11:01:01;;;;;;;1.85;1.15;;;14.10;99.90;;;;;;5035932;28;20265;-92
2023/06/30 11:04:11;;;;;;;3.15;1.27;;;14.00;99.90;;;;;;5036377;28;20211;-93
2023/06/30 11:06:46;;;;;;;4.40;1.30;;;14.10;99.90;;;;;;5035751;28;20284;-90
2023/06/30 11:09:23;;;;;;;3.90;1.83;;;14.00;99.90;;;;;;5048588;28;20196;-91
2023/06/30 11:11:56;;;;;;;3.22;1.67;;;14.00;99.90;;;;;;5054890;28;20204;-92
2023/06/30 11:14:42;;;;;;;8.82;2.28;;;14.00;99.90;;;;;;5073064;28;20200;-92
2023/06/30 11:17:15;;;;;;;3.55;1.80;;;14.00;99.90;;;;;;5084315;28;20257;-91
2023/06/30 11:20:17;;;;;;;4.35;2.10;;;13.90;99.90;;;;;;5088060;28;20204;-91
2023/06/30 11:23:00;;;;;;;2.40;1.80;;;13.90;99.90;;;;;;5084667;28;20206;-92
2023/06/30 11:25:37;;;;;;;3.85;2.22;;;13.90;99.90;;;;;;5045339;28;20201;-92
2023/06/30 11:28:11;;;;;;;3.63;2.05;;;14.00;99.90;;;;;;5044282;28;20192;-91
2023/06/30 11:30:45;;;;;;;2.28;2.00;;;14.00;99.90;;;;;;5054143;28;20306;-92
2023/06/30 11:33:22;;;;;;;6.15;2.40;;;14.00;99.90;;;;;;5075788;28;20253;-91
2023/06/30 11:36:06;;;;;;;3.72;2.20;;;14.00;99.90;;;;;;5069046;28;20432;-92
2023/06/30 11:38:45;;;;;;;2.92;2.13;;;13.90;99.90;;;;;;5034408;28;20240;-91
2023/06/30 11:41:21;;;;;;;2.65;1.80;;;13.90;99.90;;;;;;5035369;28;20196;-92
2023/06/30 11:43:56;;;;;;;4.63;2.05;;;13.90;99.90;;;;;;5041196;28;20567;-91
2023/06/30 11:46:35;;;;;;;3.17;2.20;;;13.80;99.90;;;;;;5035739;28;20218;-92
2023/06/30 11:49:07;;;;;;;2.70;2.13;;;13.80;99.90;;;;;;5036566;28;20199;-93
2023/06/30 11:51:40;;;;;;;2.45;1.85;;;13.80;99.90;;;;;;5060093;28;20235;-91
2023/06/30 11:54:13;;;;;;;4.45;2.20;;;13.70;99.90;;;;;;5049102;28;20203;-90
2023/06/30 11:56:52;;;;;;;3.78;2.10;;;13.60;99.90;;;;;;5046021;28;20267;-91
2023/06/30 11:59:26;;;;;;;3.45;2.00;;;13.60;99.90;;;;;;5060205;28;20197;-93
2023/06/30 12:02:00;;;;;;;2.60;2.00;;;13.60;99.90;;;;;;5059664;28;20651;-93
2023/06/30 12:04:37;;;;;;;3.90;1.80;;;13.50;99.90;;;;;;5041123;28;20204;-91
2023/06/30 12:07:08;;;;;;;4.25;2.42;;;13.50;99.90;;;;;;5080615;28;20176;-91
2023/06/30 12:09:42;;;;;;;1.75;1.42;;;13.50;99.90;;;;;;5072745;28;20200;-90
2023/06/30 12:12:35;;;;;;;3.13;1.48;;;13.50;99.90;;;;;;5079203;28;20265;-91
2023/06/30 12:15:13;;;;;;;2.83;1.70;;;13.40;99.90;;;;;;5076421;28;20264;-93
2023/06/30 12:17:46;;;;;;;3.15;1.83;;;13.40;99.90;;;;;;5067872;28;20224;-89
2023/06/30 12:20:24;;;;;;;2.90;1.50;;;13.40;99.90;;;;;;5048732;28;20208;-92
2023/06/30 12:22:59;;;;;;;5.00;1.48;;;13.30;99.90;;;;;;5073294;28;20658;-91
2023/06/30 12:25:38;;;;;;;3.60;1.63;;;13.40;99.90;;;;;;5039221;28;20196;-91
2023/06/30 12:32:07;;;;;;;2.88;1.70;;;13.30;99.90;;;;;;5008608;28;20907;-92
2023/06/30 12:34:47;;;;;;;3.72;1.80;;;13.30;99.90;;;;;;5004981;28;20245;-92
2023/06/30 12:37:30;;;;;;;2.13;1.58;;;13.40;99.90;;;;;;4983702;28;20223;-92
2023/06/30 12:40:25;;;;;;;2.25;1.38;;;13.40;99.90;;;;;;4980945;28;20241;-92
2023/06/30 12:43:02;;;;;;;2.60;1.27;;;13.30;99.90;;;;;;4978856;28;20223;-92
2023/06/30 12:45:36;;;;;;;2.25;1.33;;;13.40;99.90;;;;;;4983083;28;20209;-89
2023/06/30 12:48:30;;;;;;;2.25;1.40;;;13.30;99.90;;;;;;4978885;28;20194;-91
2023/06/30 12:51:09;;;;;;;4.80;1.70;;;13.30;99.90;;;;;;4994336;28;20262;-91
2023/06/30 12:53:59;;;;;;;1.63;1.20;;;13.40;99.90;;;;;;4997674;28;20238;-90
2023/06/30 12:56:31;;;;;;;2.33;1.33;;;13.30;99.90;;;;;;4978243;28;20231;-92
2023/06/30 12:59:10;;;;;;;2.55;1.20;;;13.20;99.90;;;;;;4964847;28;20199;-93
2023/06/30 13:04:57;;;;;;;1.25;1.15;;;13.20;99.90;;;;;;4987819;28;20199;-92
2023/06/30 13:07:37;;;;;;;2.20;1.33;;;13.20;99.90;;;;;;4979362;28;20199;-93
2023/06/30 13:10:13;;;;;;;1.88;1.00;;;13.10;99.90;;;;;;5039879;28;20229;-92
2023/06/30 13:15:37;;;;;;;1.27;0.77;;;13.20;99.90;;;;;;5062211;28;20694;-93
2023/06/30 13:26:55;;;;;;;0.80;0.80;;;13.20;99.90;;;;;;5049954;28;20207;-92
2023/06/30 13:29:34;;;;;;;1.85;0.80;;;13.20;99.90;;;;;;5053524;28;20288;-93
2023/06/30 13:32:08;;;;;;;0.60;0.60;;;13.20;99.90;;;;;;5065693;28;20207;-91
2023/06/30 13:34:48;;;;;;;1.27;0.90;;;13.20;99.90;;;;;;5063903;28;20181;-92
2023/06/30 13:43:13;;;;;;;2.55;1.00;;;13.20;99.90;;;;;;5060785;28;20295;-92
2023/06/30 13:46:10;;;;;;;1.15;0.88;;;13.30;99.90;;;;;;5030616;28;20201;-92
2023/06/30 13:48:46;;;;;;;1.23;0.90;;;13.20;99.90;;;;;;5047535;28;20292;-90
2023/06/30 13:51:31;;;;;;;0.65;0.60;;;13.20;99.90;;;;;;5050995;28;20220;-93